createdAt,value
2017-09-07T00:00:16.183Z,13.3
2017-09-07T00:01:15.494Z,13.2
2017-09-07T00:02:14.554Z,13.2
2017-09-07T00:03:13.996Z,13.2
2017-09-07T00:04:13.313Z,13.2
2017-09-07T00:05:11.997Z,13.2
2017-09-07T00:06:11.568Z,13.2
2017-09-07T00:07:10.762Z,13.2
2017-09-07T00:08:09.947Z,13.2
2017-09-07T00:09:09.014Z,13.2
2017-09-07T00:10:08.328Z,13.2
2017-09-07T00:12:06.926Z,13.2
2017-09-07T00:13:05.863Z,13.2
2017-09-07T00:14:05.430Z,13.2
2017-09-07T00:15:04.869Z,13.2
2017-09-07T00:16:03.680Z,13.2
2017-09-07T00:17:03.124Z,13.2
2017-09-07T00:18:02.322Z,13.2
2017-09-07T00:19:01.641Z,13.2
2017-09-07T00:20:00.979Z,13.2
2017-09-07T00:21:00.063Z,13.2
2017-09-07T00:21:59.249Z,13.2
2017-09-07T00:22:58.206Z,13.2
2017-09-07T00:23:58.025Z,13.1
2017-09-07T00:24:56.716Z,13.2
2017-09-07T00:25:55.906Z,13.1
2017-09-07T00:26:55.099Z,13.2
2017-09-07T00:27:25.865Z,13.2
2017-09-07T00:27:55.991Z,13.2
2017-09-07T00:28:26.622Z,13.2
2017-09-07T00:28:56.760Z,13.1
2017-09-07T00:29:27.006Z,13.1
2017-09-07T00:30:52.229Z,13.1
2017-09-07T00:31:51.426Z,13.2
2017-09-07T00:32:50.753Z,13.2
2017-09-07T00:33:50.246Z,13.1
2017-09-07T00:34:49.432Z,13.1
2017-09-07T00:35:48.114Z,13.1
2017-09-07T00:36:47.926Z,13.1
2017-09-07T00:37:47.238Z,13.1
2017-09-07T00:38:46.177Z,13.1
2017-09-07T00:39:45.614Z,13.1
2017-09-07T00:40:44.323Z,13.1
2017-09-07T00:41:43.818Z,13.1
2017-09-07T00:43:42.015Z,13.1
2017-09-07T00:44:41.081Z,13.1
2017-09-07T00:45:40.768Z,13.1
2017-09-07T00:46:39.841Z,13
2017-09-07T00:47:39.154Z,13
2017-09-07T00:48:38.344Z,13
2017-09-07T00:49:37.830Z,13
2017-09-07T00:50:36.635Z,13
2017-09-07T00:51:35.689Z,13
2017-09-07T00:53:34.516Z,13
2017-09-07T00:54:33.461Z,13
2017-09-07T00:55:32.771Z,13
2017-09-07T00:56:32.330Z,13
2017-09-07T00:57:31.014Z,13
2017-09-07T00:58:30.836Z,13
2017-09-07T00:59:29.898Z,12.9
2017-09-07T01:00:29.223Z,12.9
2017-09-07T01:01:28.028Z,12.9
2017-09-07T01:02:27.468Z,13
2017-09-07T01:03:26.777Z,12.9
2017-09-07T01:04:26.221Z,12.9
2017-09-07T01:05:25.034Z,13
2017-09-07T01:06:24.472Z,12.9
2017-09-07T01:07:23.514Z,13
2017-09-07T01:08:22.938Z,12.9
2017-09-07T01:09:21.982Z,12.9
2017-09-07T01:10:21.149Z,12.9
2017-09-07T01:11:20.696Z,12.9
2017-09-07T01:12:19.877Z,12.9
2017-09-07T01:14:18.202Z,12.9
2017-09-07T01:15:17.250Z,12.9
2017-09-07T01:16:16.549Z,12.9
2017-09-07T01:17:15.726Z,12.9
2017-09-07T01:18:14.898Z,12.9
2017-09-07T01:19:14.208Z,12.9
2017-09-07T01:20:13.255Z,12.9
2017-09-07T01:20:43.621Z,12.9
2017-09-07T01:21:14.107Z,12.9
2017-09-07T01:21:44.338Z,12.9
2017-09-07T01:22:14.770Z,12.9
2017-09-07T01:23:11.048Z,12.8
2017-09-07T01:24:10.351Z,12.8
2017-09-07T01:25:09.399Z,12.8
2017-09-07T01:26:08.821Z,12.8
2017-09-07T01:27:07.997Z,12.8
2017-09-07T01:28:07.293Z,12.8
2017-09-07T01:29:06.468Z,12.8
2017-09-07T01:30:05.889Z,12.8
2017-09-07T01:31:05.059Z,12.7
2017-09-07T01:32:04.358Z,12.7
2017-09-07T01:33:03.414Z,12.7
2017-09-07T01:34:02.341Z,12.8
2017-09-07T01:35:01.765Z,12.8
2017-09-07T01:37:00.456Z,12.8
2017-09-07T01:37:59.632Z,12.8
2017-09-07T01:38:58.680Z,12.8
2017-09-07T01:39:57.726Z,12.8
2017-09-07T01:40:57.023Z,12.8
2017-09-07T01:41:55.951Z,12.8
2017-09-07T01:42:55.630Z,12.8
2017-09-07T01:43:54.684Z,12.8
2017-09-07T01:46:52.508Z,12.8
2017-09-07T01:47:51.551Z,12.8
2017-09-07T01:48:50.852Z,12.8
2017-09-07T01:51:48.292Z,12.8
2017-09-07T01:52:47.480Z,12.8
2017-09-07T01:53:47.031Z,12.8
2017-09-07T01:54:46.333Z,12.8
2017-09-07T01:55:45.005Z,12.8
2017-09-07T01:56:44.813Z,12.8
2017-09-07T01:57:43.736Z,12.8
2017-09-07T01:58:43.036Z,12.8
2017-09-07T01:59:42.210Z,12.8
2017-09-07T02:00:41.633Z,12.8
2017-09-07T02:01:40.423Z,12.8
2017-09-07T02:02:39.840Z,12.8
2017-09-07T02:03:39.015Z,12.8
2017-09-07T02:05:37.578Z,12.8
2017-09-07T02:06:36.521Z,12.8
2017-09-07T02:07:35.946Z,12.8
2017-09-07T02:08:35.491Z,12.8
2017-09-07T02:09:34.414Z,12.8
2017-09-07T02:10:33.840Z,12.8
2017-09-07T02:11:33.047Z,12.7
2017-09-07T02:12:32.063Z,12.7
2017-09-07T02:13:31.356Z,12.7
2017-09-07T02:14:30.275Z,12.7
2017-09-07T02:15:29.319Z,12.7
2017-09-07T02:16:28.750Z,12.8
2017-09-07T02:17:28.177Z,12.8
2017-09-07T02:18:27.220Z,12.7
2017-09-07T02:19:26.398Z,12.8
2017-09-07T02:20:25.699Z,12.7
2017-09-07T02:22:24.007Z,12.8
2017-09-07T02:23:23.437Z,12.8
2017-09-07T02:25:22.000Z,12.8
2017-09-07T02:26:20.795Z,12.8
2017-09-07T02:27:20.350Z,12.8
2017-09-07T02:28:19.276Z,12.8
2017-09-07T02:30:17.961Z,12.8
2017-09-07T02:31:17.397Z,12.8
2017-09-07T02:32:16.204Z,12.8
2017-09-07T02:33:15.505Z,12.8
2017-09-07T02:34:14.673Z,12.8
2017-09-07T02:36:13.228Z,12.8
2017-09-07T02:37:12.659Z,12.8
2017-09-07T02:38:11.337Z,12.8
2017-09-07T02:39:10.579Z,12.8
2017-09-07T02:40:10.291Z,12.8
2017-09-07T02:41:09.376Z,12.8
2017-09-07T02:42:08.301Z,12.8
2017-09-07T02:43:07.602Z,12.8
2017-09-07T02:44:07.026Z,12.8
2017-09-07T02:45:06.079Z,12.8
2017-09-07T02:46:05.632Z,12.8
2017-09-07T02:47:04.305Z,12.8
2017-09-07T02:48:03.858Z,12.8
2017-09-07T02:49:03.159Z,12.8
2017-09-07T02:51:01.468Z,12.8
2017-09-07T02:52:00.517Z,12.8
2017-09-07T02:52:59.950Z,12.8
2017-09-07T02:54:58.011Z,12.8
2017-09-07T02:55:57.434Z,12.8
2017-09-07T02:56:56.728Z,12.8
2017-09-07T02:58:55.291Z,12.8
2017-09-07T02:59:54.468Z,12.8
2017-09-07T03:00:53.389Z,12.8
2017-09-07T03:01:52.690Z,12.8
2017-09-07T03:02:51.989Z,12.8
2017-09-07T03:03:50.906Z,12.8
2017-09-07T03:04:50.210Z,12.8
2017-09-07T03:05:49.888Z,12.8
2017-09-07T03:06:48.942Z,12.8
2017-09-07T03:08:47.135Z,12.8
2017-09-07T03:09:46.308Z,12.8
2017-09-07T03:10:45.355Z,12.8
2017-09-07T03:13:43.429Z,12.8
2017-09-07T03:14:42.476Z,12.8
2017-09-07T03:15:41.778Z,12.8
2017-09-07T03:16:41.198Z,12.8
2017-09-07T03:17:40.242Z,12.8
2017-09-07T03:18:39.668Z,12.8
2017-09-07T03:20:37.736Z,12.8
2017-09-07T03:21:37.168Z,12.8
2017-09-07T03:22:36.211Z,12.8
2017-09-07T03:23:35.382Z,12.8
2017-09-07T03:24:34.708Z,12.8
2017-09-07T03:25:34.111Z,12.8
2017-09-07T03:26:33.037Z,12.8
2017-09-07T03:27:32.459Z,12.8
2017-09-07T03:28:31.757Z,12.8
2017-09-07T03:29:31.058Z,12.8
2017-09-07T03:30:30.081Z,12.8
2017-09-07T03:31:28.888Z,12.8
2017-09-07T03:32:28.700Z,12.7
2017-09-07T03:33:27.623Z,12.8
2017-09-07T03:34:27.171Z,12.8
2017-09-07T03:35:26.347Z,12.7
2017-09-07T03:36:25.521Z,12.7
2017-09-07T03:37:24.708Z,12.7
2017-09-07T03:38:23.885Z,12.7
2017-09-07T03:39:23.186Z,12.7
2017-09-07T03:40:22.230Z,12.7
2017-09-07T03:41:21.524Z,12.7
2017-09-07T03:42:20.572Z,12.7
2017-09-07T03:43:19.991Z,12.7
2017-09-07T03:44:19.424Z,12.7
2017-09-07T03:45:17.965Z,12.7
2017-09-07T03:46:17.646Z,12.7
2017-09-07T03:47:16.826Z,12.7
2017-09-07T03:48:15.997Z,12.7
2017-09-07T03:49:15.044Z,12.7
2017-09-07T03:50:14.591Z,12.6
2017-09-07T03:51:13.384Z,12.6
2017-09-07T03:52:12.939Z,12.6
2017-09-07T03:53:11.860Z,12.6
2017-09-07T03:54:11.156Z,12.7
2017-09-07T03:56:09.970Z,12.6
2017-09-07T03:57:09.030Z,12.6
2017-09-07T03:58:08.081Z,12.6
2017-09-07T03:59:07.380Z,12.6
2017-09-07T04:00:06.429Z,12.6
2017-09-07T04:01:05.729Z,12.6
2017-09-07T04:02:04.775Z,12.6
2017-09-07T04:04:03.593Z,12.6
2017-09-07T04:05:02.761Z,12.6
2017-09-07T04:06:01.928Z,12.6
2017-09-07T04:07:00.732Z,12.6
2017-09-07T04:08:00.293Z,12.6
2017-09-07T04:08:59.471Z,12.5
2017-09-07T04:09:58.396Z,12.6
2017-09-07T04:10:57.825Z,12.6
2017-09-07T04:11:56.999Z,12.6
2017-09-07T04:12:56.297Z,12.6
2017-09-07T04:13:55.345Z,12.6
2017-09-07T04:14:54.395Z,12.5
2017-09-07T04:15:53.567Z,12.5
2017-09-07T04:16:53.368Z,12.5
2017-09-07T04:17:52.295Z,12.5
2017-09-07T04:18:51.848Z,12.5
2017-09-07T04:19:50.770Z,12.5
2017-09-07T04:20:50.197Z,12.5
2017-09-07T04:21:48.992Z,12.5
2017-09-07T04:22:48.550Z,12.5
2017-09-07T04:23:47.601Z,12.5
2017-09-07T04:24:46.779Z,12.5
2017-09-07T04:25:46.206Z,12.4
2017-09-07T04:26:45.132Z,12.4
2017-09-07T04:27:44.440Z,12.4
2017-09-07T04:28:43.866Z,12.4
2017-09-07T04:29:43.042Z,12.4
2017-09-07T04:30:41.833Z,12.4
2017-09-07T04:31:41.127Z,12.4
2017-09-07T04:32:40.809Z,12.4
2017-09-07T04:33:39.732Z,12.4
2017-09-07T04:34:38.777Z,12.4
2017-09-07T04:35:38.200Z,12.4
2017-09-07T04:36:37.622Z,12.4
2017-09-07T04:37:36.553Z,12.4
2017-09-07T04:39:35.107Z,12.4
2017-09-07T04:40:34.286Z,12.4
2017-09-07T04:41:33.455Z,12.4
2017-09-07T04:42:32.632Z,12.4
2017-09-07T04:43:31.678Z,12.4
2017-09-07T04:44:30.980Z,12.4
2017-09-07T04:45:30.279Z,12.5
2017-09-07T04:46:29.700Z,12.5
2017-09-07T04:47:28.621Z,12.5
2017-09-07T04:48:28.045Z,12.5
2017-09-07T04:49:27.218Z,12.5
2017-09-07T04:50:26.642Z,12.5
2017-09-07T04:51:25.597Z,12.4
2017-09-07T04:52:24.396Z,12.5
2017-09-07T04:53:24.199Z,12.5
2017-09-07T04:54:23.121Z,12.5
2017-09-07T04:55:22.423Z,12.4
2017-09-07T04:56:21.716Z,12.5
2017-09-07T04:57:20.637Z,12.5
2017-09-07T04:58:20.069Z,12.5
2017-09-07T04:59:19.247Z,12.5
2017-09-07T05:01:17.306Z,12.5
2017-09-07T05:02:16.985Z,12.5
2017-09-07T05:03:16.156Z,12.5
2017-09-07T05:04:15.323Z,12.5
2017-09-07T05:05:14.500Z,12.5
2017-09-07T05:06:13.295Z,12.4
2017-09-07T05:07:12.970Z,12.5
2017-09-07T05:08:12.272Z,12.5
2017-09-07T05:10:10.333Z,12.5
2017-09-07T05:11:09.507Z,12.5
2017-09-07T05:13:08.073Z,12.5
2017-09-07T05:14:07.121Z,12.5
2017-09-07T05:15:06.551Z,12.5
2017-09-07T05:16:05.484Z,12.5
2017-09-07T05:17:04.653Z,12.6
2017-09-07T05:18:04.086Z,12.6
2017-09-07T05:19:03.381Z,12.6
2017-09-07T05:21:01.689Z,12.6
2017-09-07T05:22:00.869Z,12.6
2017-09-07T05:23:00.297Z,12.6
2017-09-07T05:23:59.591Z,12.6
2017-09-07T05:24:58.384Z,12.6
2017-09-07T05:25:57.929Z,12.6
2017-09-07T05:26:57.227Z,12.6
2017-09-07T05:27:56.518Z,12.7
2017-09-07T05:28:27.131Z,12.7
2017-09-07T05:29:54.365Z,12.7
2017-09-07T05:30:53.666Z,12.7
2017-09-07T05:31:52.964Z,12.7
2017-09-07T05:32:52.391Z,12.7
2017-09-07T05:33:51.686Z,12.7
2017-09-07T05:35:49.961Z,12.7
2017-09-07T05:37:48.524Z,12.7
2017-09-07T05:40:45.846Z,12.7
2017-09-07T05:41:44.897Z,12.7
2017-09-07T05:42:44.067Z,12.7
2017-09-07T05:43:43.370Z,12.8
2017-09-07T05:44:42.925Z,12.8
2017-09-07T05:45:41.855Z,12.8
2017-09-07T05:46:41.401Z,12.9
2017-09-07T05:47:40.453Z,12.9
2017-09-07T05:48:39.876Z,12.9
2017-09-07T05:49:39.172Z,12.9
2017-09-07T05:50:38.341Z,12.9
2017-09-07T05:51:37.266Z,12.9
2017-09-07T05:52:36.455Z,12.9
2017-09-07T05:53:35.762Z,12.9
2017-09-07T05:54:34.817Z,13
2017-09-07T05:55:34.114Z,13
2017-09-07T05:56:33.159Z,13
2017-09-07T05:57:32.465Z,13
2017-09-07T05:58:31.764Z,13
2017-09-07T05:59:31.312Z,13
2017-09-07T06:00:29.986Z,13
2017-09-07T06:01:29.290Z,13
2017-09-07T06:02:28.465Z,13
2017-09-07T06:03:28.148Z,13
2017-09-07T06:03:58.763Z,13
2017-09-07T06:05:26.624Z,13
2017-09-07T06:06:25.292Z,13
2017-09-07T06:07:24.838Z,13
2017-09-07T06:08:24.018Z,13.1
2017-09-07T06:09:22.963Z,13.1
2017-09-07T06:10:22.267Z,13.1
2017-09-07T06:11:21.433Z,13.1
2017-09-07T06:12:20.862Z,13.1
2017-09-07T06:13:20.163Z,13.1
2017-09-07T06:14:19.090Z,13.1
2017-09-07T06:15:18.642Z,13.2
2017-09-07T06:16:17.448Z,13.2
2017-09-07T06:17:17.000Z,13.2
2017-09-07T06:19:15.192Z,13.2
2017-09-07T06:20:14.745Z,13.2
2017-09-07T06:21:13.419Z,13.2
2017-09-07T06:22:13.347Z,13.1
2017-09-07T06:23:12.264Z,13.1
2017-09-07T06:24:11.562Z,13
2017-09-07T06:25:10.487Z,13
2017-09-07T06:26:10.039Z,13
2017-09-07T06:27:08.831Z,12.9
2017-09-07T06:29:07.555Z,12.9
2017-09-07T06:30:06.856Z,12.9
2017-09-07T06:31:05.787Z,12.8
2017-09-07T06:32:04.966Z,12.8
2017-09-07T06:33:04.271Z,12.8
2017-09-07T06:34:03.448Z,12.7
2017-09-07T06:35:03.006Z,12.6
2017-09-07T06:36:02.200Z,12.6
2017-09-07T06:37:01.121Z,12.5
2017-09-07T06:38:00.295Z,12.4
2017-09-07T06:38:59.593Z,12.4
2017-09-07T06:39:58.642Z,12.4
2017-09-07T06:40:57.812Z,12.3
2017-09-07T06:41:57.365Z,12.3
2017-09-07T06:42:56.417Z,12.2
2017-09-07T06:43:55.849Z,12.2
2017-09-07T06:44:26.338Z,12.2
2017-09-07T06:44:56.697Z,12.2
2017-09-07T06:45:27.058Z,12.2
2017-09-07T06:46:53.411Z,12.1
2017-09-07T06:48:52.237Z,12.2
2017-09-07T06:49:50.785Z,12.2
2017-09-07T06:50:50.468Z,12.2
2017-09-07T06:51:49.638Z,12.2
2017-09-07T06:52:48.437Z,12.2
2017-09-07T06:53:47.740Z,12.3
2017-09-07T06:54:47.042Z,12.3
2017-09-07T06:55:46.727Z,12.3
2017-09-07T06:56:45.521Z,12.3
2017-09-07T06:57:44.942Z,12.3
2017-09-07T06:58:43.991Z,12.4
2017-09-07T06:59:43.284Z,12.4
2017-09-07T07:00:42.579Z,12.4
2017-09-07T07:01:41.873Z,12.4
2017-09-07T07:02:40.669Z,12.5
2017-09-07T07:03:39.971Z,12.5
2017-09-07T07:04:39.532Z,12.5
2017-09-07T07:05:38.330Z,12.5
2017-09-07T07:06:37.502Z,12.6
2017-09-07T07:07:36.804Z,12.6
2017-09-07T07:08:35.895Z,12.6
2017-09-07T07:09:35.199Z,12.6
2017-09-07T07:10:34.374Z,12.7
2017-09-07T07:11:33.672Z,12.7
2017-09-07T07:12:33.353Z,12.7
2017-09-07T07:13:31.901Z,12.8
2017-09-07T07:14:31.329Z,12.8
2017-09-07T07:15:30.886Z,12.8
2017-09-07T07:16:29.810Z,12.8
2017-09-07T07:17:29.117Z,12.9
2017-09-07T07:18:28.159Z,12.9
2017-09-07T07:19:27.587Z,13
2017-09-07T07:20:26.500Z,13
2017-09-07T07:21:25.797Z,13
2017-09-07T07:22:25.227Z,13
2017-09-07T07:23:24.275Z,13
2017-09-07T07:24:23.574Z,13.1
2017-09-07T07:25:22.624Z,13.1
2017-09-07T07:26:21.803Z,13.1
2017-09-07T07:27:21.110Z,13.1
2017-09-07T07:29:19.792Z,13.1
2017-09-07T07:31:17.973Z,13.2
2017-09-07T07:32:17.404Z,13.2
2017-09-07T07:33:16.575Z,13.2
2017-09-07T07:34:15.888Z,13.3
2017-09-07T07:35:14.561Z,13.3
2017-09-07T07:36:13.984Z,13.3
2017-09-07T07:37:13.160Z,13.3
2017-09-07T07:38:12.846Z,13.4
2017-09-07T07:39:11.646Z,13.4
2017-09-07T07:40:10.695Z,13.4
2017-09-07T07:41:10.373Z,13.5
2017-09-07T07:42:09.676Z,13.5
2017-09-07T07:43:08.727Z,13.6
2017-09-07T07:44:08.147Z,13.7
2017-09-07T07:45:06.943Z,13.7
2017-09-07T07:46:06.249Z,13.8
2017-09-07T07:47:05.560Z,13.8
2017-09-07T07:48:04.731Z,13.8
2017-09-07T07:49:03.906Z,13.9
2017-09-07T07:50:03.206Z,13.9
2017-09-07T07:51:02.509Z,13.9
2017-09-07T07:52:01.817Z,13.9
2017-09-07T07:53:01.248Z,14
2017-09-07T07:54:00.179Z,14
2017-09-07T07:54:59.225Z,14
2017-09-07T07:55:58.651Z,14
2017-09-07T07:56:57.827Z,14
2017-09-07T07:57:56.996Z,14
2017-09-07T07:58:56.168Z,14
2017-09-07T07:59:55.338Z,14
2017-09-07T08:00:54.507Z,14.1
2017-09-07T08:01:53.679Z,14.1
2017-09-07T08:02:53.109Z,14
2017-09-07T08:03:52.174Z,14
2017-09-07T08:04:51.851Z,13.9
2017-09-07T08:05:51.031Z,13.9
2017-09-07T08:06:49.832Z,13.9
2017-09-07T08:07:49.262Z,13.8
2017-09-07T08:08:48.573Z,13.8
2017-09-07T08:09:47.622Z,13.7
2017-09-07T08:10:46.798Z,13.7
2017-09-07T08:11:46.346Z,13.7
2017-09-07T08:12:45.646Z,13.6
2017-09-07T08:13:44.569Z,13.5
2017-09-07T08:14:43.882Z,13.5
2017-09-07T08:15:43.312Z,13.5
2017-09-07T08:16:42.236Z,13.5
2017-09-07T08:17:41.530Z,13.5
2017-09-07T08:18:40.958Z,13.5
2017-09-07T08:19:40.126Z,13.6
2017-09-07T08:20:39.301Z,13.6
2017-09-07T08:21:38.473Z,13.6
2017-09-07T08:22:37.908Z,13.7
2017-09-07T08:23:37.207Z,13.7
2017-09-07T08:24:36.249Z,13.7
2017-09-07T08:25:35.170Z,13.7
2017-09-07T08:26:34.505Z,13.8
2017-09-07T08:27:33.810Z,13.8
2017-09-07T08:28:32.993Z,13.9
2017-09-07T08:29:32.420Z,13.9
2017-09-07T08:30:31.842Z,14
2017-09-07T08:31:30.765Z,14
2017-09-07T08:32:30.064Z,14
2017-09-07T08:33:29.498Z,14.1
2017-09-07T08:34:28.418Z,14.1
2017-09-07T08:35:27.601Z,14.1
2017-09-07T08:36:26.783Z,14.1
2017-09-07T08:37:26.096Z,14.1
2017-09-07T08:38:25.276Z,14.2
2017-09-07T08:39:24.828Z,14.1
2017-09-07T08:40:24.138Z,14.2
2017-09-07T08:41:22.933Z,14.2
2017-09-07T08:42:22.493Z,14.2
2017-09-07T08:43:21.669Z,14.2
2017-09-07T08:44:21.091Z,14.3
2017-09-07T08:45:20.143Z,14.3
2017-09-07T08:47:18.331Z,14.3
2017-09-07T08:48:17.639Z,14.4
2017-09-07T08:49:17.064Z,14.4
2017-09-07T08:50:16.367Z,14.4
2017-09-07T08:51:15.420Z,14.4
2017-09-07T08:52:14.850Z,14.4
2017-09-07T08:54:13.406Z,14.5
2017-09-07T08:55:12.582Z,14.5
2017-09-07T08:56:11.752Z,14.6
2017-09-07T08:57:11.059Z,14.6
2017-09-07T08:59:09.252Z,14.6
2017-09-07T09:00:08.932Z,14.7
2017-09-07T09:01:07.851Z,14.7
2017-09-07T09:02:07.285Z,14.7
2017-09-07T09:04:05.604Z,14.9
2017-09-07T09:05:04.776Z,14.9
2017-09-07T09:06:04.462Z,14.9
2017-09-07T09:09:01.666Z,15
2017-09-07T09:10:01.103Z,14.9
2017-09-07T09:11:00.153Z,15
2017-09-07T09:11:59.455Z,15
2017-09-07T09:12:59.018Z,15
2017-09-07T09:13:58.193Z,15
2017-09-07T09:14:57.496Z,15
2017-09-07T09:15:56.675Z,15.1
2017-09-07T09:16:55.977Z,15.1
2017-09-07T09:17:55.145Z,15.1
2017-09-07T09:20:52.845Z,15.1
2017-09-07T09:21:52.017Z,15
2017-09-07T09:22:51.442Z,15
2017-09-07T09:23:50.739Z,15
2017-09-07T09:24:49.913Z,15
2017-09-07T09:25:48.967Z,15
2017-09-07T09:26:48.782Z,15
2017-09-07T09:27:47.707Z,15
2017-09-07T09:28:47.174Z,15.1
2017-09-07T09:29:45.864Z,15.1
2017-09-07T09:30:45.674Z,15.1
2017-09-07T09:31:44.725Z,15.2
2017-09-07T09:32:43.903Z,15.2
2017-09-07T09:33:42.955Z,15.2
2017-09-07T09:34:42.509Z,15.3
2017-09-07T09:35:41.933Z,15.3
2017-09-07T09:36:40.857Z,15.3
2017-09-07T09:37:40.030Z,15.3
2017-09-07T09:38:39.457Z,15.4
2017-09-07T09:39:38.514Z,15.4
2017-09-07T09:40:38.080Z,15.4
2017-09-07T09:41:37.383Z,15.4
2017-09-07T09:42:36.247Z,15.4
2017-09-07T09:43:35.676Z,15.5
2017-09-07T09:44:35.100Z,15.5
2017-09-07T09:45:34.026Z,15.5
2017-09-07T09:46:33.334Z,15.4
2017-09-07T09:47:32.638Z,15.5
2017-09-07T09:48:31.939Z,15.5
2017-09-07T09:49:31.116Z,15.5
2017-09-07T09:50:30.666Z,15.5
2017-09-07T09:51:30.095Z,15.5
2017-09-07T09:52:29.024Z,15.6
2017-09-07T09:53:28.326Z,15.6
2017-09-07T09:54:27.501Z,15.6
2017-09-07T09:55:26.936Z,15.6
2017-09-07T09:56:26.110Z,15.7
2017-09-07T09:57:25.416Z,15.7
2017-09-07T09:58:24.718Z,15.7
2017-09-07T09:59:24.039Z,15.7
2017-09-07T10:00:23.088Z,15.7
2017-09-07T10:01:22.389Z,15.8
2017-09-07T10:02:21.811Z,15.8
2017-09-07T10:03:20.860Z,15.9
2017-09-07T10:04:20.161Z,15.9
2017-09-07T10:05:19.591Z,15.9
2017-09-07T10:06:18.762Z,15.8
2017-09-07T10:07:18.065Z,15.9
2017-09-07T10:08:17.240Z,15.9
2017-09-07T10:09:16.541Z,15.9
2017-09-07T10:10:15.839Z,15.9
2017-09-07T10:11:15.267Z,15.9
2017-09-07T10:12:14.317Z,15.9
2017-09-07T10:12:44.553Z,15.9
2017-09-07T10:14:13.306Z,15.9
2017-09-07T10:15:11.848Z,15.9
2017-09-07T10:16:11.429Z,16
2017-09-07T10:17:10.979Z,16
2017-09-07T10:19:09.287Z,16.1
2017-09-07T10:20:08.708Z,16.1
2017-09-07T10:21:07.887Z,16.2
2017-09-07T10:22:06.937Z,16.3
2017-09-07T10:23:06.616Z,16.4
2017-09-07T10:24:05.543Z,16.4
2017-09-07T10:25:05.140Z,16.3
2017-09-07T10:26:04.194Z,16.3
2017-09-07T10:27:03.620Z,16.4
2017-09-07T10:28:02.419Z,16.4
2017-09-07T10:29:01.977Z,16.4
2017-09-07T10:30:01.529Z,16.3
2017-09-07T10:31:00.336Z,16.2
2017-09-07T10:32:00.262Z,16.1
2017-09-07T10:32:59.065Z,16
2017-09-07T10:33:58.360Z,16.1
2017-09-07T10:34:57.924Z,16
2017-09-07T10:35:57.350Z,16
2017-09-07T10:36:56.394Z,16
2017-09-07T10:37:55.821Z,16
2017-09-07T10:38:54.615Z,15.9
2017-09-07T10:39:54.165Z,15.9
2017-09-07T10:40:53.341Z,15.9
2017-09-07T10:41:52.508Z,15.9
2017-09-07T10:42:52.058Z,15.9
2017-09-07T10:43:51.237Z,15.8
2017-09-07T10:44:50.675Z,15.8
2017-09-07T10:45:49.725Z,15.8
2017-09-07T10:46:49.028Z,15.8
2017-09-07T10:47:48.204Z,15.8
2017-09-07T10:48:47.381Z,15.7
2017-09-07T10:49:47.054Z,15.7
2017-09-07T10:50:46.235Z,15.7
2017-09-07T10:51:45.537Z,15.6
2017-09-07T10:52:45.086Z,15.7
2017-09-07T10:53:43.879Z,15.7
2017-09-07T10:54:43.307Z,15.7
2017-09-07T10:57:41.129Z,15.7
2017-09-07T10:58:40.303Z,15.7
2017-09-07T10:59:39.739Z,15.8
2017-09-07T11:00:39.167Z,15.9
2017-09-07T11:01:38.600Z,16
2017-09-07T11:02:37.654Z,16.1
2017-09-07T11:03:37.075Z,16.1
2017-09-07T11:04:36.380Z,16.1
2017-09-07T11:05:06.774Z,16.1
2017-09-07T11:05:37.132Z,16
2017-09-07T11:06:07.626Z,16
2017-09-07T11:06:38.111Z,16.1
2017-09-07T11:07:34.020Z,16.2
2017-09-07T11:08:33.196Z,16.2
2017-09-07T11:09:32.870Z,16.2
2017-09-07T11:10:31.798Z,16.2
2017-09-07T11:11:31.228Z,16.2
2017-09-07T11:12:30.524Z,16.2
2017-09-07T11:13:29.830Z,16.2
2017-09-07T11:14:29.383Z,16.3
2017-09-07T11:15:28.178Z,16.2
2017-09-07T11:16:27.487Z,16.1
2017-09-07T11:17:26.914Z,16
2017-09-07T11:18:25.964Z,16
2017-09-07T11:19:25.520Z,16.1
2017-09-07T11:20:24.814Z,16
2017-09-07T11:21:24.370Z,16
2017-09-07T11:22:23.306Z,15.9
2017-09-07T11:23:22.733Z,16
2017-09-07T11:24:21.785Z,15.9
2017-09-07T11:25:21.210Z,15.9
2017-09-07T11:26:20.375Z,16
2017-09-07T11:27:19.676Z,16.1
2017-09-07T11:28:19.103Z,16.1
2017-09-07T11:29:18.659Z,16.1
2017-09-07T11:30:17.715Z,16.2
2017-09-07T11:31:16.763Z,16.3
2017-09-07T11:32:16.063Z,16.3
2017-09-07T11:33:15.242Z,16.3
2017-09-07T11:34:14.671Z,16.3
2017-09-07T11:35:14.098Z,16.3
2017-09-07T11:36:13.410Z,16.3
2017-09-07T11:37:12.580Z,16.3
2017-09-07T11:38:11.874Z,16.2
2017-09-07T11:39:11.189Z,16.2
2017-09-07T11:40:10.497Z,16.2
2017-09-07T11:41:09.922Z,16.2
2017-09-07T11:42:08.840Z,16.2
2017-09-07T11:43:08.402Z,16.2
2017-09-07T11:44:07.576Z,16.2
2017-09-07T11:45:07.128Z,16.2
2017-09-07T11:46:06.049Z,16.2
2017-09-07T11:47:05.477Z,16.3
2017-09-07T11:48:04.902Z,16.3
2017-09-07T11:49:03.826Z,16.2
2017-09-07T11:50:03.258Z,16.3
2017-09-07T11:51:02.307Z,16.3
2017-09-07T11:52:01.730Z,16.4
2017-09-07T11:53:01.409Z,16.3
2017-09-07T11:54:00.831Z,16.4
2017-09-07T11:54:59.622Z,16.4
2017-09-07T11:55:59.436Z,16.3
2017-09-07T11:56:58.103Z,16.3
2017-09-07T11:57:57.665Z,16.3
2017-09-07T11:58:57.094Z,16.3
2017-09-07T11:59:56.400Z,16.4
2017-09-07T12:00:55.448Z,16.4
2017-09-07T12:01:54.757Z,16.4
2017-09-07T12:02:54.056Z,16.5
2017-09-07T12:03:53.228Z,16.5
2017-09-07T12:05:51.921Z,16.5
2017-09-07T12:06:51.472Z,16.4
2017-09-07T12:07:50.903Z,16.4
2017-09-07T12:08:49.830Z,16.4
2017-09-07T12:09:49.387Z,16.4
2017-09-07T12:10:48.310Z,16.4
2017-09-07T12:11:47.739Z,16.4
2017-09-07T12:12:47.040Z,16.4
2017-09-07T12:14:45.979Z,16.4
2017-09-07T12:15:45.279Z,16.5
2017-09-07T12:17:43.464Z,16.6
2017-09-07T12:18:42.763Z,16.7
2017-09-07T12:19:42.197Z,16.8
2017-09-07T12:20:41.630Z,17
2017-09-07T12:24:38.887Z,17.2
2017-09-07T12:26:37.073Z,17.2
2017-09-07T12:27:36.247Z,17.2
2017-09-07T12:30:34.207Z,17.5
2017-09-07T12:31:33.629Z,17.5
2017-09-07T12:32:03.865Z,17.5
2017-09-07T12:32:34.481Z,17.6
2017-09-07T12:33:04.968Z,17.6
2017-09-07T12:33:35.204Z,17.6
2017-09-07T12:34:05.311Z,17.6
2017-09-07T12:35:30.775Z,17.6
2017-09-07T12:36:30.450Z,17.5
2017-09-07T12:37:29.750Z,17.5
2017-09-07T12:38:28.806Z,17.5
2017-09-07T12:39:27.982Z,17.5
2017-09-07T12:43:25.694Z,17.4
2017-09-07T12:44:24.487Z,17.4
2017-09-07T12:45:23.914Z,17.5
2017-09-07T12:46:23.470Z,17.5
2017-09-07T12:47:22.772Z,17.6
2017-09-07T12:49:21.588Z,17.5
2017-09-07T12:52:19.296Z,17.4
2017-09-07T12:53:18.096Z,17.4
2017-09-07T12:54:18.030Z,17.5
2017-09-07T12:56:16.341Z,17.5
2017-09-07T12:57:15.644Z,17.5
2017-09-07T12:58:14.952Z,17.4
2017-09-07T12:59:14.250Z,17.5
2017-09-07T13:00:13.808Z,17.4
2017-09-07T13:03:11.640Z,17.4
2017-09-07T13:04:10.620Z,17.5
2017-09-07T13:05:10.301Z,17.5
2017-09-07T13:06:09.847Z,17.5
2017-09-07T13:08:08.284Z,17.5
2017-09-07T13:09:07.460Z,17.5
2017-09-07T13:10:07.036Z,17.5
2017-09-07T13:11:06.343Z,17.5
2017-09-07T13:13:04.529Z,17.4
2017-09-07T13:14:04.078Z,17.4
2017-09-07T13:14:34.566Z,17.4
2017-09-07T13:15:04.920Z,17.4
2017-09-07T13:17:02.228Z,17.4
2017-09-07T13:18:01.287Z,17.3
2017-09-07T13:19:00.586Z,17.2
2017-09-07T13:19:59.764Z,17.3
2017-09-07T13:20:59.325Z,17.2
2017-09-07T13:22:57.941Z,17.3
2017-09-07T13:23:57.241Z,17.3
2017-09-07T13:24:56.667Z,17.4
2017-09-07T13:25:27.158Z,17.4
2017-09-07T13:27:54.665Z,17.4
2017-09-07T13:28:53.587Z,17.5
2017-09-07T13:29:53.272Z,17.5
2017-09-07T13:30:52.699Z,17.5
2017-09-07T13:31:51.875Z,17.5
2017-09-07T13:32:51.298Z,17.5
2017-09-07T13:33:50.355Z,17.5
2017-09-07T13:34:49.787Z,17.6
2017-09-07T13:36:48.353Z,17.6
2017-09-07T13:37:47.917Z,17.5
2017-09-07T13:40:45.499Z,17.5
2017-09-07T13:45:42.098Z,17.6
2017-09-07T13:47:40.919Z,17.7
2017-09-07T13:48:40.221Z,17.8
2017-09-07T13:49:39.529Z,17.8
2017-09-07T13:50:39.090Z,17.9
2017-09-07T13:51:37.889Z,17.9
2017-09-07T13:52:37.198Z,18
2017-09-07T13:53:36.755Z,18
2017-09-07T13:54:35.938Z,18
2017-09-07T13:55:35.631Z,17.9
2017-09-07T13:56:34.683Z,17.9
2017-09-07T13:57:34.234Z,17.9
2017-09-07T13:59:32.684Z,18
2017-09-07T14:01:31.377Z,17.9
2017-09-07T14:03:29.814Z,17.9
2017-09-07T14:04:29.132Z,17.9
2017-09-07T14:07:27.085Z,17.8
2017-09-07T14:08:26.307Z,17.8
2017-09-07T14:10:25.119Z,17.8
2017-09-07T14:11:24.421Z,17.8
2017-09-07T14:12:23.976Z,17.8
2017-09-07T14:13:23.025Z,17.8
2017-09-07T14:14:22.588Z,17.8
2017-09-07T14:15:21.888Z,17.9
2017-09-07T14:17:20.204Z,18.2
2017-09-07T14:18:20.020Z,18.3
2017-09-07T14:19:19.214Z,18.3
2017-09-07T14:20:18.394Z,18.4
2017-09-07T14:21:17.825Z,18.4
2017-09-07T14:21:47.817Z,18.4
2017-09-07T14:22:18.429Z,18.4
2017-09-07T14:22:48.792Z,18.4
2017-09-07T14:23:19.415Z,18.5
2017-09-07T14:24:15.697Z,18.5
2017-09-07T14:25:14.752Z,18.6
2017-09-07T14:26:14.316Z,18.7
2017-09-07T14:29:12.271Z,19